Time;durP1;ratioP1;P1;durP2;ratioP2;P2;SDS_P1;SDS_P2;PMS_P1;PMS_P2;Temp;Humidity;BMP_temperature;BMP_pressure;BME280_temperature;BME280_humidity;BME280_pressure;Samples;Min_cycle;Max_cycle;Signal;HPM_P1;HPM_P2
2021/01/20 00:02:01;;;;;;;56.88;2.83;;;5.10;1.00;;;;;;5109427;28;20211;-69
2021/01/20 00:04:27;;;;;;;57.72;3.28;;;5.10;1.00;;;;;;5111637;28;20224;-69
2021/01/20 00:06:54;;;;;;;57.92;3.20;;;5.10;1.00;;;;;;5111097;28;20221;-69
2021/01/20 00:09:21;;;;;;;56.83;2.92;;;5.10;1.00;;;;;;5109945;28;20224;-69
2021/01/20 00:11:47;;;;;;;57.60;3.00;;;5.10;1.00;;;;;;5110035;28;20227;-68
2021/01/20 00:14:14;;;;;;;56.08;3.38;;;5.00;1.00;;;;;;5110356;28;20259;-68
2021/01/20 00:16:40;;;;;;;57.00;2.88;;;4.90;1.00;;;;;;5110722;28;20239;-69
2021/01/20 00:19:07;;;;;;;59.90;2.80;;;4.70;1.00;;;;;;5109091;28;20228;-69
2021/01/20 00:21:33;;;;;;;55.85;2.50;;;4.60;1.00;;;;;;5111638;28;20395;-69
2021/01/20 00:24:00;;;;;;;56.47;2.50;;;4.50;1.00;;;;;;5110584;28;20220;-69
2021/01/20 00:26:27;;;;;;;56.50;2.95;;;4.40;1.00;;;;;;5110888;28;20230;-69
2021/01/20 00:28:53;;;;;;;56.08;2.88;;;4.40;1.00;;;;;;5110519;28;20208;-69
2021/01/20 00:31:20;;;;;;;56.28;2.58;;;4.30;1.00;;;;;;5111305;28;20227;-69
2021/01/20 00:33:46;;;;;;;56.33;2.58;;;4.20;1.00;;;;;;5110367;28;20293;-68
2021/01/20 00:36:13;;;;;;;56.20;2.80;;;4.10;1.00;;;;;;5109971;28;20200;-69
2021/01/20 00:38:40;;;;;;;57.55;3.20;;;4.00;1.00;;;;;;5110620;28;20494;-69
2021/01/20 00:41:06;;;;;;;58.00;3.35;;;3.90;1.00;;;;;;5106353;28;20235;-69
2021/01/20 00:43:33;;;;;;;56.17;3.17;;;3.80;1.00;;;;;;5096519;28;20243;-69
2021/01/20 00:46:00;;;;;;;55.80;2.80;;;3.70;1.00;;;;;;5093167;28;20224;-69
2021/01/20 00:48:26;;;;;;;56.35;2.78;;;3.60;1.00;;;;;;5093143;28;20683;-69
2021/01/20 00:50:54;;;;;;;56.58;3.00;;;3.50;1.00;;;;;;5092017;28;20204;-68
2021/01/20 00:53:20;;;;;;;56.97;2.97;;;3.40;1.00;;;;;;5092671;28;20315;-69
2021/01/20 00:55:47;;;;;;;57.58;3.17;;;3.30;1.00;;;;;;5092954;28;20224;-69
2021/01/20 00:58:13;;;;;;;56.60;3.38;;;3.20;1.00;;;;;;5103940;28;20231;-69
2021/01/20 01:00:40;;;;;;;57.28;3.83;;;3.10;1.00;;;;;;5102005;28;20208;-69
2021/01/20 01:03:07;;;;;;;56.47;3.85;;;3.00;1.00;;;;;;5105996;28;20247;-69
2021/01/20 01:05:33;;;;;;;56.25;3.40;;;2.90;1.00;;;;;;5105863;28;20698;-69
2021/01/20 01:08:00;;;;;;;56.47;3.38;;;2.90;1.00;;;;;;5106312;28;20239;-69
2021/01/20 01:10:27;;;;;;;55.83;3.25;;;2.80;1.00;;;;;;5099671;28;20682;-69
2021/01/20 01:12:53;;;;;;;55.92;3.08;;;2.70;1.00;;;;;;5094125;28;20296;-69
2021/01/20 01:15:19;;;;;;;57.03;3.35;;;2.70;1.00;;;;;;5093467;28;20298;-69
2021/01/20 01:17:47;;;;;;;56.75;3.60;;;2.60;1.00;;;;;;5094116;28;20847;-69
2021/01/20 01:20:13;;;;;;;58.15;4.20;;;2.50;1.00;;;;;;5093920;28;20238;-69
2021/01/20 01:22:40;;;;;;;56.90;3.20;;;2.50;1.00;;;;;;5093822;28;20245;-69
2021/01/20 01:25:07;;;;;;;57.05;3.80;;;2.50;1.00;;;;;;5093050;28;20200;-69
2021/01/20 01:27:34;;;;;;;57.25;3.63;;;2.40;1.00;;;;;;5092376;28;20231;-69
2021/01/20 01:30:00;;;;;;;55.60;3.22;;;2.30;1.00;;;;;;5092280;28;20592;-69
2021/01/20 01:32:26;;;;;;;56.20;3.60;;;2.30;1.00;;;;;;5092160;28;20600;-69
2021/01/20 01:34:54;;;;;;;57.42;3.78;;;2.20;1.00;;;;;;5092133;28;20208;-69
2021/01/20 01:37:20;;;;;;;58.95;4.20;;;2.20;1.00;;;;;;5092111;28;20761;-69
2021/01/20 01:39:46;;;;;;;58.83;3.67;;;2.10;1.00;;;;;;5092139;28;20204;-69
2021/01/20 01:42:13;;;;;;;56.70;3.15;;;2.10;1.00;;;;;;5091661;28;20204;-69
2021/01/20 01:44:39;;;;;;;57.58;3.80;;;2.00;1.00;;;;;;5091870;28;20209;-70
2021/01/20 01:47:06;;;;;;;56.75;3.83;;;2.00;1.00;;;;;;5091702;28;20230;-70
2021/01/20 01:49:32;;;;;;;57.05;3.60;;;1.90;1.00;;;;;;5092285;28;20208;-69
2021/01/20 01:52:01;;;;;;;57.45;4.15;;;1.80;1.00;;;;;;5091791;28;20204;-69
2021/01/20 01:54:28;;;;;;;57.28;4.30;;;1.80;1.00;;;;;;5090599;28;20714;-70
2021/01/20 01:56:55;;;;;;;57.85;4.15;;;1.70;1.00;;;;;;5091820;28;20750;-69
2021/01/20 01:59:22;;;;;;;58.17;5.18;;;1.60;1.00;;;;;;5091909;28;20200;-69
2021/01/20 02:01:49;;;;;;;58.78;4.65;;;1.60;1.00;;;;;;5091964;28;20575;-68
2021/01/20 02:04:15;;;;;;;56.38;3.97;;;1.60;1.00;;;;;;5091483;28;20390;-69
2021/01/20 02:06:43;;;;;;;57.17;4.00;;;1.60;1.00;;;;;;5091620;28;20314;-69
2021/01/20 02:09:10;;;;;;;56.83;3.65;;;1.60;1.00;;;;;;5091648;28;20200;-69
2021/01/20 02:11:54;;;;;;;58.95;4.20;;;1.60;1.00;;;;;;5091449;28;20208;-69
2021/01/20 02:14:29;;;;;;;58.47;4.20;;;1.60;1.00;;;;;;5091655;28;20613;-69
2021/01/20 02:17:06;;;;;;;55.45;3.40;;;1.60;1.00;;;;;;5091757;28;20208;-69
2021/01/20 02:20:03;;;;;;;56.47;3.80;;;1.60;1.00;;;;;;5091727;28;20222;-69
2021/01/20 02:22:35;;;;;;;56.05;3.35;;;1.50;1.00;;;;;;5091498;28;20228;-69
2021/01/20 02:25:14;;;;;;;57.22;3.30;;;1.60;1.00;;;;;;5090579;28;20200;-69
2021/01/20 02:27:51;;;;;;;56.25;3.40;;;1.60;1.00;;;;;;5095445;28;20610;-69
2021/01/20 02:30:20;;;;;;;55.60;3.13;;;1.70;1.00;;;;;;5095299;28;20204;-68
2021/01/20 02:32:51;;;;;;;55.75;2.88;;;1.80;1.00;;;;;;5095292;28;20232;-69
2021/01/20 02:35:19;;;;;;;55.63;2.70;;;1.90;1.00;;;;;;5095392;28;20350;-69
2021/01/20 02:37:47;;;;;;;56.60;3.20;;;2.10;1.00;;;;;;5095245;28;20215;-69
2021/01/20 02:40:15;;;;;;;56.22;2.90;;;2.30;1.00;;;;;;5095144;28;20291;-68
2021/01/20 02:42:44;;;;;;;55.70;2.78;;;2.60;1.00;;;;;;5094939;28;20224;-69
2021/01/20 02:45:11;;;;;;;56.30;2.85;;;2.90;1.00;;;;;;5094812;28;20204;-69
2021/01/20 02:47:39;;;;;;;55.58;2.90;;;3.10;1.00;;;;;;5095161;28;20561;-69
2021/01/20 02:50:07;;;;;;;55.60;2.97;;;3.40;1.00;;;;;;5095216;28;20253;-69
2021/01/20 02:52:41;;;;;;;55.67;2.70;;;3.50;1.00;;;;;;5094644;28;20232;-69
2021/01/20 02:55:09;;;;;;;56.08;2.85;;;3.60;1.00;;;;;;5094768;28;20204;-69
2021/01/20 02:57:37;;;;;;;56.03;3.00;;;3.70;1.00;;;;;;5093375;28;20196;-68
2021/01/20 03:00:06;;;;;;;56.50;3.03;;;3.90;1.00;;;;;;5094862;28;20212;-68
2021/01/20 03:02:36;;;;;;;55.80;2.70;;;4.20;1.00;;;;;;5094397;28;20727;-68
2021/01/20 03:05:05;;;;;;;55.70;2.70;;;4.30;1.00;;;;;;5094633;28;20204;-68
2021/01/20 03:07:33;;;;;;;56.15;2.78;;;4.30;1.00;;;;;;5094596;28;20224;-69
2021/01/20 03:09:59;;;;;;;55.97;2.70;;;4.40;1.00;;;;;;5094540;28;20636;-68
2021/01/20 03:12:28;;;;;;;55.97;2.50;;;4.40;1.00;;;;;;5094200;28;20200;-69
2021/01/20 03:14:57;;;;;;;55.58;2.30;;;4.40;1.00;;;;;;5094622;28;20598;-69
2021/01/20 03:17:23;;;;;;;55.67;2.80;;;4.50;1.00;;;;;;5094452;28;20201;-69
2021/01/20 03:19:50;;;;;;;55.75;2.70;;;4.50;1.00;;;;;;5094525;28;20208;-69
2021/01/20 03:22:17;;;;;;;56.22;2.50;;;4.40;1.00;;;;;;5094011;28;20228;-69
2021/01/20 03:24:43;;;;;;;55.78;2.83;;;4.50;1.00;;;;;;5094242;28;20231;-69
2021/01/20 03:27:10;;;;;;;56.17;2.50;;;4.40;1.00;;;;;;5093948;28;20262;-69
2021/01/20 03:29:37;;;;;;;56.20;2.55;;;4.30;1.00;;;;;;5093070;28;20211;-69
2021/01/20 03:32:03;;;;;;;56.30;3.10;;;4.20;1.00;;;;;;5093782;28;20249;-69
2021/01/20 03:34:29;;;;;;;56.60;2.47;;;4.00;1.00;;;;;;5094038;28;20220;-69
2021/01/20 03:36:56;;;;;;;56.83;2.90;;;3.90;1.00;;;;;;5093464;28;20547;-69
2021/01/20 03:39:23;;;;;;;55.30;2.40;;;3.70;1.00;;;;;;5093878;28;20208;-69
2021/01/20 03:41:49;;;;;;;55.30;2.90;;;3.60;1.00;;;;;;5094034;28;20204;-69
2021/01/20 03:44:16;;;;;;;56.05;2.90;;;3.40;1.00;;;;;;5093865;28;20224;-69
2021/01/20 03:46:42;;;;;;;55.88;2.50;;;3.20;1.00;;;;;;5093988;28;20243;-69
2021/01/20 03:49:08;;;;;;;56.20;2.80;;;3.10;1.00;;;;;;5093832;28;20687;-69
2021/01/20 03:51:35;;;;;;;56.13;2.90;;;3.00;1.00;;;;;;5093666;28;20212;-69
2021/01/20 03:54:01;;;;;;;56.83;3.22;;;2.90;1.00;;;;;;5093476;28;20289;-69
2021/01/20 03:56:28;;;;;;;55.97;2.88;;;2.80;1.00;;;;;;5093826;28;20203;-69
2021/01/20 03:58:55;;;;;;;56.10;3.38;;;2.90;1.00;;;;;;5093767;28;20208;-69
2021/01/20 04:01:21;;;;;;;56.22;2.80;;;3.00;1.00;;;;;;5092340;28;20621;-69
2021/01/20 04:03:47;;;;;;;57.25;3.20;;;3.20;1.00;;;;;;5093247;28;20238;-69
2021/01/20 04:06:14;;;;;;;57.08;3.15;;;3.30;1.00;;;;;;5093220;28;20234;-69
2021/01/20 04:08:40;;;;;;;56.65;3.00;;;3.50;1.00;;;;;;5093738;28;20201;-69
2021/01/20 04:11:06;;;;;;;56.25;2.80;;;3.50;1.00;;;;;;5093451;28;20207;-69
2021/01/20 04:13:35;;;;;;;56.67;3.20;;;3.50;1.00;;;;;;5093319;28;20326;-69
2021/01/20 04:16:02;;;;;;;56.72;3.10;;;3.40;1.00;;;;;;5093202;28;20254;-69
2021/01/20 04:18:28;;;;;;;57.85;2.90;;;3.40;1.00;;;;;;5093323;28;20435;-69
2021/01/20 04:20:54;;;;;;;55.90;2.83;;;3.40;1.00;;;;;;5092967;28;20204;-69
2021/01/20 04:23:21;;;;;;;57.15;3.25;;;3.40;1.00;;;;;;5093122;28;20224;-69
2021/01/20 04:25:47;;;;;;;56.90;3.38;;;3.30;1.00;;;;;;5093069;28;20224;-69
2021/01/20 04:28:14;;;;;;;55.97;3.00;;;3.30;1.00;;;;;;5093263;28;20334;-69
2021/01/20 04:30:41;;;;;;;57.75;3.75;;;3.20;1.00;;;;;;5093119;28;20576;-69
2021/01/20 04:33:07;;;;;;;56.22;3.20;;;3.10;1.00;;;;;;5091316;28;20368;-69
2021/01/20 04:35:33;;;;;;;55.65;3.10;;;3.00;1.00;;;;;;5092967;28;20204;-69
2021/01/20 04:38:01;;;;;;;56.45;3.25;;;3.00;1.00;;;;;;5092913;28;20349;-69
2021/01/20 04:40:27;;;;;;;57.03;3.40;;;2.90;1.00;;;;;;5092872;28;20211;-69
2021/01/20 04:42:55;;;;;;;58.90;3.88;;;2.90;1.00;;;;;;5092580;28;20250;-69
2021/01/20 04:45:21;;;;;;;58.55;3.45;;;2.80;1.00;;;;;;5092572;28;20208;-69
2021/01/20 04:47:51;;;;;;;56.65;3.30;;;2.80;1.00;;;;;;5092467;28;20235;-69
2021/01/20 04:50:20;;;;;;;56.80;3.40;;;2.90;1.00;;;;;;5092600;28;20212;-69
2021/01/20 04:52:47;;;;;;;56.08;3.05;;;2.90;1.00;;;;;;5092307;28;20242;-69
2021/01/20 04:55:14;;;;;;;58.90;3.70;;;2.90;1.00;;;;;;5092485;28;20300;-69
2021/01/20 04:57:41;;;;;;;57.55;3.40;;;2.90;1.00;;;;;;5092663;28;20204;-69
2021/01/20 05:00:09;;;;;;;56.28;3.75;;;2.80;1.00;;;;;;5092587;28;20208;-69
2021/01/20 05:02:36;;;;;;;60.95;5.05;;;2.80;1.00;;;;;;5092139;28;20235;-69
2021/01/20 05:05:05;;;;;;;56.90;4.18;;;2.70;1.00;;;;;;5091265;28;20600;-69
2021/01/20 05:07:31;;;;;;;57.95;3.50;;;2.60;1.00;;;;;;5092144;28;20224;-69
2021/01/20 05:09:58;;;;;;;57.80;3.40;;;2.50;1.00;;;;;;5092229;28;20235;-69
2021/01/20 05:12:34;;;;;;;57.40;4.07;;;2.40;1.00;;;;;;5092133;28;20334;-69
2021/01/20 05:15:03;;;;;;;56.70;3.80;;;2.30;1.00;;;;;;5092101;28;20208;-69
2021/01/20 05:17:30;;;;;;;56.88;3.92;;;2.20;1.00;;;;;;5092457;28;20200;-69
2021/01/20 05:19:56;;;;;;;59.53;4.35;;;2.20;1.00;;;;;;5092244;28;20285;-69
2021/01/20 05:22:23;;;;;;;56.80;3.80;;;2.10;1.00;;;;;;5091770;28;20204;-69
2021/01/20 05:24:58;;;;;;;57.58;4.03;;;2.10;1.00;;;;;;5092078;28;20208;-69
2021/01/20 05:27:29;;;;;;;60.80;5.05;;;2.10;1.00;;;;;;5091945;28;20226;-69
2021/01/20 05:30:04;;;;;;;56.97;3.80;;;2.00;1.00;;;;;;5092239;28;20282;-69
2021/01/20 05:32:30;;;;;;;58.45;4.28;;;2.00;1.00;;;;;;5091733;28;20969;-69
2021/01/20 05:35:03;;;;;;;59.13;5.07;;;2.00;1.00;;;;;;5090854;28;20747;-69
2021/01/20 05:37:30;;;;;;;57.88;4.28;;;2.00;1.00;;;;;;5091725;28;20200;-69
2021/01/20 05:40:10;;;;;;;57.83;4.60;;;2.00;1.00;;;;;;5091684;28;20217;-69
2021/01/20 05:42:49;;;;;;;58.05;4.47;;;2.00;1.00;;;;;;5091655;28;20224;-69
2021/01/20 05:45:17;;;;;;;60.35;5.32;;;2.00;1.00;;;;;;5091908;28;20256;-69
2021/01/20 05:48:07;;;;;;;57.88;4.40;;;2.00;1.00;;;;;;5091858;28;20603;-69
2021/01/20 05:50:34;;;;;;;57.88;4.40;;;2.00;1.00;;;;;;5091611;28;20208;-69
2021/01/20 05:53:10;;;;;;;58.05;4.47;;;2.00;1.00;;;;;;5091556;28;20232;-69
2021/01/20 05:55:38;;;;;;;59.63;4.72;;;2.00;1.00;;;;;;5091816;28;20726;-69
2021/01/20 05:58:05;;;;;;;59.70;4.90;;;2.00;1.00;;;;;;5091681;28;20216;-69
2021/01/20 06:00:31;;;;;;;65.82;6.40;;;2.00;1.00;;;;;;5092611;28;20251;-69
2021/01/20 06:02:58;;;;;;;59.88;6.00;;;2.00;1.00;;;;;;5095470;28;20277;-68
2021/01/20 06:05:25;;;;;;;59.17;4.97;;;2.10;1.00;;;;;;5095604;28;20573;-69
2021/01/20 06:07:53;;;;;;;59.42;5.55;;;2.10;1.00;;;;;;5094584;28;20227;-68
2021/01/20 06:10:21;;;;;;;59.47;5.55;;;2.00;1.00;;;;;;5095722;28;20279;-69
2021/01/20 06:12:48;;;;;;;59.10;5.22;;;2.00;1.00;;;;;;5095406;28;20642;-68
2021/01/20 06:15:14;;;;;;;58.25;4.80;;;2.00;1.00;;;;;;5095674;28;20212;-69
2021/01/20 06:17:42;;;;;;;59.28;4.80;;;2.00;1.00;;;;;;5095416;28;20780;-69
2021/01/20 06:20:10;;;;;;;59.65;4.68;;;2.00;1.00;;;;;;5095749;28;20203;-69
2021/01/20 06:22:45;;;;;;;59.90;5.03;;;2.00;1.00;;;;;;5095409;28;20227;-69
2021/01/20 06:25:14;;;;;;;58.92;5.03;;;2.00;1.00;;;;;;5095354;28;20689;-69
2021/01/20 06:27:46;;;;;;;58.97;4.72;;;2.00;1.00;;;;;;5095436;28;20256;-69
2021/01/20 06:30:17;;;;;;;60.72;5.32;;;2.00;1.00;;;;;;5095358;28;20698;-69
2021/01/20 06:32:47;;;;;;;58.63;5.38;;;2.00;1.00;;;;;;5095072;28;20315;-68
2021/01/20 06:35:14;;;;;;;62.65;4.95;;;2.10;1.00;;;;;;5095340;28;20204;-68
2021/01/20 06:37:42;;;;;;;58.55;5.07;;;2.10;1.00;;;;;;5094979;28;20232;-68
2021/01/20 06:40:37;;;;;;;58.15;5.35;;;2.10;1.00;;;;;;5093525;28;20293;-68
2021/01/20 06:43:31;;;;;;;58.95;5.40;;;2.10;1.00;;;;;;5093905;28;20228;-68
2021/01/20 06:46:11;;;;;;;59.03;5.35;;;2.10;1.00;;;;;;5095124;28;20207;-68
2021/01/20 06:49:11;;;;;;;60.40;5.63;;;2.10;1.00;;;;;;5095154;28;20298;-69
2021/01/20 06:51:38;;;;;;;61.63;4.88;;;2.10;1.00;;;;;;5095272;28;20224;-69
2021/01/20 06:54:13;;;;;;;61.40;6.28;;;2.10;1.00;;;;;;5094787;28;20308;-68
2021/01/20 06:56:42;;;;;;;60.38;6.00;;;2.20;1.00;;;;;;5095147;28;20254;-68
2021/01/20 06:59:22;;;;;;;57.90;4.80;;;2.20;1.00;;;;;;5094900;28;20212;-69
2021/01/20 07:02:08;;;;;;;56.92;4.60;;;2.20;1.00;;;;;;5095116;28;20208;-69
2021/01/20 07:05:06;;;;;;;57.78;4.32;;;2.30;1.00;;;;;;5094925;28;20805;-69
2021/01/20 07:08:06;;;;;;;61.22;5.15;;;2.40;1.00;;;;;;5094753;28;20228;-69
2021/01/20 07:11:05;;;;;;;58.08;4.65;;;2.50;1.00;;;;;;5094644;28;20204;-69
2021/01/20 07:13:32;;;;;;;58.75;4.72;;;2.60;1.00;;;;;;5094666;28;20228;-69
2021/01/20 07:16:00;;;;;;;58.45;4.53;;;2.70;1.00;;;;;;5094456;28;20210;-69
2021/01/20 07:18:27;;;;;;;57.13;4.10;;;2.80;1.00;;;;;;5094799;28;20201;-68
2021/01/20 07:20:54;;;;;;;57.80;4.30;;;2.90;1.00;;;;;;5094503;28;20211;-69
2021/01/20 07:23:21;;;;;;;58.25;4.97;;;3.00;1.00;;;;;;5094320;28;20258;-69
2021/01/20 07:25:54;;;;;;;58.80;4.50;;;3.00;1.00;;;;;;5094283;28;20234;-69
2021/01/20 07:28:22;;;;;;;61.17;6.28;;;3.10;1.00;;;;;;5094449;28;20291;-69
2021/01/20 07:30:48;;;;;;;59.38;5.22;;;3.10;1.00;;;;;;5094361;28;20295;-68
2021/01/20 07:33:18;;;;;;;58.33;4.38;;;3.10;1.00;;;;;;5094232;28;20224;-69
2021/01/20 07:35:45;;;;;;;60.13;4.63;;;3.20;1.00;;;;;;5094057;28;20204;-69
2021/01/20 07:38:11;;;;;;;58.55;5.13;;;3.30;1.00;;;;;;5094150;28;20240;-69
2021/01/20 07:40:39;;;;;;;59.00;4.65;;;3.40;1.00;;;;;;5094147;28;20572;-69
2021/01/20 07:43:06;;;;;;;58.90;4.80;;;3.40;1.00;;;;;;5093765;28;20220;-68
2021/01/20 07:45:38;;;;;;;57.83;3.80;;;3.50;1.00;;;;;;5094156;28;20526;-68
2021/01/20 07:48:07;;;;;;;57.15;4.28;;;3.50;1.00;;;;;;5094129;28;20260;-68
2021/01/20 07:50:41;;;;;;;60.22;4.70;;;3.60;1.00;;;;;;5094095;28;20636;-69
2021/01/20 07:53:10;;;;;;;59.10;4.60;;;3.60;1.00;;;;;;5093647;28;20227;-68
2021/01/20 07:55:37;;;;;;;59.95;4.75;;;3.70;1.00;;;;;;5093928;28;20245;-67
2021/01/20 07:58:03;;;;;;;61.10;4.60;;;3.70;1.00;;;;;;5094196;28;20212;-68
2021/01/20 08:00:30;;;;;;;57.85;4.50;;;3.80;1.00;;;;;;5093907;28;20258;-68
2021/01/20 08:03:00;;;;;;;60.83;5.07;;;3.80;1.00;;;;;;5093524;28;20280;-68
2021/01/20 08:05:32;;;;;;;58.83;5.68;;;3.90;1.00;;;;;;5092312;28;20236;-68
2021/01/20 08:08:11;;;;;;;60.47;6.00;;;3.90;1.00;;;;;;5092582;28;20226;-68
2021/01/20 08:10:38;;;;;;;60.30;5.45;;;4.00;1.00;;;;;;5092721;28;20287;-69
2021/01/20 08:13:05;;;;;;;60.28;5.57;;;4.10;1.00;;;;;;5092727;28;20236;-69
2021/01/20 08:15:33;;;;;;;59.97;5.10;;;4.10;1.00;;;;;;5092863;28;20555;-68
2021/01/20 08:18:00;;;;;;;63.10;5.15;;;4.20;1.00;;;;;;5092628;28;20204;-69
2021/01/20 08:20:32;;;;;;;58.83;5.50;;;4.30;1.00;;;;;;5093303;28;20204;-69
2021/01/20 08:22:59;;;;;;;59.00;5.47;;;4.30;1.00;;;;;;5092833;28;20352;-68
2021/01/20 08:25:26;;;;;;;60.75;6.63;;;4.40;1.00;;;;;;5093410;28;20208;-69
2021/01/20 08:27:53;;;;;;;63.28;4.43;;;4.50;1.00;;;;;;5093312;28;20228;-69
2021/01/20 08:30:30;;;;;;;61.33;6.55;;;4.60;1.00;;;;;;5093353;28;20620;-69
2021/01/20 08:32:57;;;;;;;59.38;5.13;;;5.00;1.00;;;;;;5092666;28;20315;-69
2021/01/20 08:35:28;;;;;;;62.58;4.90;;;5.20;1.00;;;;;;5093280;28;20200;-69
2021/01/20 08:37:55;;;;;;;59.47;5.00;;;5.20;1.00;;;;;;5093180;28;20203;-70
2021/01/20 08:40:22;;;;;;;60.80;5.80;;;5.30;1.00;;;;;;5093115;28;20201;-69
2021/01/20 08:42:49;;;;;;;61.35;5.60;;;5.30;1.00;;;;;;5092595;28;20715;-69
2021/01/20 08:45:17;;;;;;;60.38;4.97;;;5.30;1.00;;;;;;5092679;28;20205;-69
2021/01/20 08:47:46;;;;;;;61.75;5.95;;;5.30;1.00;;;;;;5092798;28;20861;-69
2021/01/20 08:50:14;;;;;;;59.80;5.80;;;5.40;1.00;;;;;;5093195;28;20200;-69
2021/01/20 08:52:51;;;;;;;61.72;5.70;;;5.40;1.00;;;;;;5092364;28;20232;-69
2021/01/20 08:55:22;;;;;;;60.83;6.18;;;5.50;1.00;;;;;;5093255;28;20208;-69
2021/01/20 08:58:22;;;;;;;60.20;4.53;;;5.50;1.00;;;;;;5092754;28;20196;-69
2021/01/20 09:00:51;;;;;;;61.65;5.85;;;5.60;1.00;;;;;;5092634;28;20290;-68
2021/01/20 09:03:19;;;;;;;58.92;5.55;;;5.70;1.00;;;;;;5092427;28;20232;-68
2021/01/20 09:05:46;;;;;;;62.50;4.78;;;5.80;1.00;;;;;;5092650;28;20204;-68
2021/01/20 09:08:14;;;;;;;61.67;5.72;;;5.80;1.00;;;;;;5092339;28;20313;-68
2021/01/20 09:10:40;;;;;;;58.58;5.30;;;5.90;1.00;;;;;;5092563;28;20216;-69
2021/01/20 09:13:07;;;;;;;60.47;5.60;;;6.00;1.00;;;;;;5092181;28;20311;-69
2021/01/20 09:15:34;;;;;;;58.47;4.35;;;6.00;1.00;;;;;;5092631;28;20213;-69
2021/01/20 09:18:00;;;;;;;59.85;4.63;;;6.10;1.00;;;;;;5092693;28;20787;-69
2021/01/20 09:20:27;;;;;;;59.50;4.72;;;6.10;1.00;;;;;;5092715;28;20589;-69
2021/01/20 09:22:53;;;;;;;60.35;5.18;;;6.20;1.00;;;;;;5092022;28;20231;-69
2021/01/20 09:25:20;;;;;;;58.72;4.30;;;6.20;1.00;;;;;;5106982;28;20298;-69
2021/01/20 09:27:46;;;;;;;58.45;3.88;;;6.30;1.00;;;;;;5112519;28;20314;-69
2021/01/20 09:30:14;;;;;;;58.13;4.25;;;6.30;1.00;;;;;;5112718;28;20228;-68
2021/01/20 09:32:41;;;;;;;58.33;4.15;;;6.40;1.00;;;;;;5112316;28;20228;-69
2021/01/20 09:35:09;;;;;;;59.00;4.05;;;6.50;1.00;;;;;;5111662;28;20266;-69
2021/01/20 09:37:35;;;;;;;58.65;4.35;;;6.50;1.00;;;;;;5112414;28;20201;-68
2021/01/20 09:40:04;;;;;;;58.10;4.30;;;6.60;1.00;;;;;;5099723;28;20208;-68
2021/01/20 09:42:30;;;;;;;58.40;4.20;;;6.60;1.00;;;;;;5094750;28;20281;-68
2021/01/20 09:44:56;;;;;;;59.78;4.88;;;6.70;1.00;;;;;;5112181;28;20203;-69
2021/01/20 09:47:24;;;;;;;61.38;5.03;;;6.80;1.00;;;;;;5112188;28;20310;-68
2021/01/20 09:49:50;;;;;;;60.88;4.90;;;6.80;1.00;;;;;;5112141;28;20200;-68
2021/01/20 09:52:17;;;;;;;59.25;4.72;;;6.70;1.00;;;;;;5111895;28;20204;-69
2021/01/20 09:54:44;;;;;;;60.10;4.88;;;6.90;1.00;;;;;;5111945;28;20235;-69
2021/01/20 09:57:10;;;;;;;60.47;5.50;;;6.90;1.00;;;;;;5112099;28;20205;-69
2021/01/20 09:59:37;;;;;;;61.75;6.65;;;6.90;1.00;;;;;;5111926;28;20237;-69
2021/01/20 10:02:03;;;;;;;61.70;6.65;;;6.80;1.00;;;;;;5111794;28;20215;-69
2021/01/20 10:04:30;;;;;;;64.35;7.05;;;6.80;1.00;;;;;;5111825;28;20282;-69
2021/01/20 10:06:57;;;;;;;64.97;6.50;;;6.70;1.00;;;;;;5111974;28;20239;-69
2021/01/20 10:09:25;;;;;;;61.53;6.68;;;6.80;1.00;;;;;;5112227;28;20204;-69
2021/01/20 10:11:51;;;;;;;61.28;6.38;;;6.70;1.00;;;;;;5111725;28;20211;-69
2021/01/20 10:14:18;;;;;;;67.53;7.70;;;6.80;1.00;;;;;;5111753;28;20255;-69
2021/01/20 10:16:46;;;;;;;59.70;5.50;;;6.70;1.00;;;;;;5111799;28;20244;-69
2021/01/20 10:19:16;;;;;;;61.58;6.75;;;6.80;1.00;;;;;;5107949;28;20671;-69
2021/01/20 10:21:43;;;;;;;62.80;6.82;;;6.80;1.00;;;;;;5091640;28;20200;-69
2021/01/20 10:24:10;;;;;;;65.38;7.00;;;6.90;1.00;;;;;;5091414;28;20640;-69
2021/01/20 10:26:37;;;;;;;64.10;6.43;;;6.90;1.00;;;;;;5091299;28;20220;-69
2021/01/20 10:29:04;;;;;;;67.80;6.65;;;7.00;1.00;;;;;;5091577;28;20224;-68
2021/01/20 10:31:31;;;;;;;65.40;6.90;;;7.00;1.00;;;;;;5091201;28;20212;-69
2021/01/20 10:33:57;;;;;;;61.55;6.43;;;7.20;1.00;;;;;;5090978;28;20260;-69
2021/01/20 10:36:24;;;;;;;62.47;6.85;;;7.30;1.00;;;;;;5091268;28;20663;-69
2021/01/20 10:38:51;;;;;;;60.65;6.40;;;7.40;1.00;;;;;;5091254;28;20212;-70
2021/01/20 10:41:19;;;;;;;64.20;6.65;;;7.60;1.00;;;;;;5091429;28;20669;-69
2021/01/20 10:43:46;;;;;;;72.40;6.93;;;7.90;1.00;;;;;;5090983;28;20271;-69
2021/01/20 10:46:13;;;;;;;62.30;6.00;;;8.00;1.00;;;;;;5091042;28;20652;-69
2021/01/20 10:48:40;;;;;;;63.63;6.50;;;8.10;1.00;;;;;;5094908;28;20205;-69
2021/01/20 10:51:06;;;;;;;63.00;6.03;;;8.20;1.00;;;;;;5094845;28;20686;-69
2021/01/20 10:53:33;;;;;;;61.83;6.20;;;8.40;1.00;;;;;;5094920;28;20508;-69
2021/01/20 10:56:00;;;;;;;60.70;6.30;;;8.60;1.00;;;;;;5092973;28;20455;-69
2021/01/20 10:58:26;;;;;;;60.75;6.00;;;8.60;1.00;;;;;;5094844;28;20443;-69
2021/01/20 11:00:52;;;;;;;62.77;6.33;;;8.70;1.00;;;;;;5094694;28;20669;-70
2021/01/20 11:03:19;;;;;;;66.40;7.27;;;8.60;1.00;;;;;;5094828;28;20554;-69
2021/01/20 11:05:46;;;;;;;63.70;6.77;;;8.60;1.00;;;;;;5094760;28;20535;-69
2021/01/20 11:08:12;;;;;;;65.83;6.50;;;8.70;1.00;;;;;;5094671;28;20522;-69
2021/01/20 11:10:39;;;;;;;62.07;6.20;;;8.80;1.00;;;;;;5095436;28;20940;-69
2021/01/20 11:13:09;;;;;;;66.97;5.73;;;8.90;1.00;;;;;;5093828;28;20473;-69
2021/01/20 11:15:36;;;;;;;61.60;5.43;;;9.00;1.00;;;;;;5095810;28;20501;-69
2021/01/20 11:18:03;;;;;;;61.33;5.80;;;9.10;1.00;;;;;;5095979;28;20862;-69
2021/01/20 11:20:30;;;;;;;61.83;5.83;;;9.10;1.00;;;;;;5095733;28;20465;-69
2021/01/20 11:22:56;;;;;;;60.57;6.50;;;9.20;1.00;;;;;;5095198;28;20475;-69
2021/01/20 11:25:23;;;;;;;63.87;5.43;;;9.30;1.00;;;;;;5094906;28;20449;-68
2021/01/20 11:27:50;;;;;;;58.47;4.70;;;9.40;1.00;;;;;;5094673;28;20477;-69
2021/01/20 11:30:18;;;;;;;60.90;5.23;;;9.40;1.00;;;;;;5095089;28;20445;-69
2021/01/20 11:32:45;;;;;;;66.30;6.23;;;9.30;1.00;;;;;;5094423;28;20532;-69
2021/01/20 11:35:12;;;;;;;65.83;5.23;;;9.40;1.00;;;;;;5095037;28;20449;-69
2021/01/20 11:37:38;;;;;;;63.40;5.27;;;9.40;1.00;;;;;;5094638;28;20447;-71
2021/01/20 11:40:06;;;;;;;59.80;4.40;;;9.30;1.00;;;;;;5094315;28;20460;-69
2021/01/20 11:42:33;;;;;;;61.17;4.87;;;9.30;1.00;;;;;;5093057;28;20474;-68
2021/01/20 11:45:00;;;;;;;62.67;5.00;;;9.30;1.00;;;;;;5110647;28;20471;-69
2021/01/20 11:47:27;;;;;;;61.43;4.70;;;9.20;1.00;;;;;;5094026;28;20480;-69
2021/01/20 11:49:53;;;;;;;73.60;4.73;;;9.20;1.00;;;;;;5093869;28;20491;-69
2021/01/20 11:52:20;;;;;;;63.83;4.60;;;8.60;1.00;;;;;;5093674;28;20446;-69
2021/01/20 11:54:46;;;;;;;62.67;4.43;;;9.10;1.00;;;;;;5093759;28;20488;-69
2021/01/20 11:57:13;;;;;;;58.27;4.90;;;9.10;1.00;;;;;;5093829;28;20448;-69
2021/01/20 11:59:39;;;;;;;63.63;5.93;;;9.10;1.00;;;;;;5093227;28;20486;-69
2021/01/20 12:02:06;;;;;;;61.00;5.30;;;9.00;1.00;;;;;;5093504;28;20940;-69
2021/01/20 12:04:33;;;;;;;70.70;6.20;;;9.00;1.00;;;;;;5093669;28;20468;-69
2021/01/20 12:07:00;;;;;;;59.87;4.83;;;9.00;1.00;;;;;;5097861;28;20620;-69
2021/01/20 12:09:26;;;;;;;64.10;4.77;;;8.90;1.00;;;;;;5107957;28;20524;-69
2021/01/20 12:11:52;;;;;;;59.43;5.63;;;8.90;1.00;;;;;;5106157;28;20468;-68
2021/01/20 12:14:19;;;;;;;59.40;4.93;;;9.00;1.00;;;;;;5102947;28;20476;-69
2021/01/20 12:16:45;;;;;;;59.57;4.53;;;8.90;1.00;;;;;;5103687;28;20522;-69
2021/01/20 12:19:12;;;;;;;59.40;4.50;;;8.90;1.00;;;;;;5103802;28;20447;-69
2021/01/20 12:21:39;;;;;;;59.30;4.33;;;8.90;1.00;;;;;;5102778;28;20454;-69
2021/01/20 12:24:07;;;;;;;59.57;4.40;;;8.90;1.00;;;;;;5103052;28;20496;-69
2021/01/20 12:26:33;;;;;;;60.30;4.47;;;8.90;1.00;;;;;;5103291;28;20452;-69
2021/01/20 12:29:00;;;;;;;60.83;4.60;;;9.00;1.00;;;;;;5103526;28;21030;-69
2021/01/20 12:31:26;;;;;;;59.90;5.32;;;9.00;1.00;;;;;;5102207;28;20580;-69
2021/01/20 12:33:52;;;;;;;59.87;4.57;;;9.10;1.00;;;;;;5101050;28;20252;-69
2021/01/20 12:36:21;;;;;;;65.27;4.93;;;9.00;1.00;;;;;;5103487;28;20453;-69
2021/01/20 12:38:48;;;;;;;57.60;4.93;;;9.00;1.00;;;;;;5103786;28;20495;-69
2021/01/20 12:41:16;;;;;;;58.10;4.60;;;9.00;1.00;;;;;;5104775;28;20442;-69
2021/01/20 12:43:42;;;;;;;59.47;4.93;;;9.00;1.00;;;;;;5102947;28;20471;-69
2021/01/20 12:46:08;;;;;;;65.60;5.70;;;9.00;1.00;;;;;;5099569;28;20581;-69
2021/01/20 12:48:35;;;;;;;62.97;5.37;;;9.00;1.00;;;;;;5100390;28;20503;-69
2021/01/20 12:51:01;;;;;;;60.53;5.73;;;9.10;1.00;;;;;;5105947;28;20538;-69
2021/01/20 12:53:28;;;;;;;59.53;4.77;;;9.10;1.00;;;;;;5112004;28;20543;-69
2021/01/20 12:55:55;;;;;;;62.43;4.10;;;9.20;1.00;;;;;;5101371;28;20471;-69
2021/01/20 12:58:21;;;;;;;58.17;4.40;;;9.20;1.00;;;;;;5102493;28;20548;-69
2021/01/20 13:00:48;;;;;;;60.13;5.43;;;9.10;1.00;;;;;;5102684;28;21037;-68
2021/01/20 13:03:14;;;;;;;60.60;5.47;;;9.30;1.00;;;;;;5102193;28;20544;-69
2021/01/20 13:05:41;;;;;;;58.90;4.60;;;9.30;1.00;;;;;;5103705;28;20450;-70